sensor_id;sensor_type;location;lat;lon;timestamp;pressure;altitude;pressure_sealevel;temperature;humidity
76108;BME280;64834;52.516;10.528;2024-01-06T00:02:16;99648.88;;;2.34;100.00
76108;BME280;64834;52.516;10.528;2024-01-06T00:04:41;99650.31;;;2.31;100.00
76108;BME280;64834;52.516;10.528;2024-01-06T00:07:07;99650.88;;;2.38;100.00
76108;BME280;64834;52.516;10.528;2024-01-06T00:09:32;99643.72;;;2.34;100.00
76108;BME280;64834;52.516;10.528;2024-01-06T00:11:58;99651.47;;;2.34;100.00
76108;BME280;64834;52.516;10.528;2024-01-06T00:14:23;99643.94;;;2.26;100.00
76108;BME280;64834;52.516;10.528;2024-01-06T00:16:49;99641.25;;;2.24;100.00
76108;BME280;64834;52.516;10.528;2024-01-06T00:19:14;99642.41;;;2.16;100.00
76108;BME280;64834;52.516;10.528;2024-01-06T00:21:39;99641.06;;;2.21;100.00
76108;BME280;64834;52.516;10.528;2024-01-06T00:24:05;99637.34;;;2.17;100.00
76108;BME280;64834;52.516;10.528;2024-01-06T00:26:30;99647.75;;;2.19;100.00
76108;BME280;64834;52.516;10.528;2024-01-06T00:28:55;99651.47;;;2.23;100.00
76108;BME280;64834;52.516;10.528;2024-01-06T00:31:21;99659.31;;;2.24;100.00
76108;BME280;64834;52.516;10.528;2024-01-06T00:33:46;99649.34;;;2.17;100.00
76108;BME280;64834;52.516;10.528;2024-01-06T00:36:11;99655.50;;;2.19;100.00
76108;BME280;64834;52.516;10.528;2024-01-06T00:38:37;99653.16;;;2.22;100.00
76108;BME280;64834;52.516;10.528;2024-01-06T00:41:02;99661.81;;;2.11;100.00
76108;BME280;64834;52.516;10.528;2024-01-06T00:43:27;99666.53;;;2.16;100.00
76108;BME280;64834;52.516;10.528;2024-01-06T00:45:53;99658.97;;;2.20;100.00
76108;BME280;64834;52.516;10.528;2024-01-06T00:48:18;99657.19;;;2.19;100.00
76108;BME280;64834;52.516;10.528;2024-01-06T00:50:43;99663.38;;;2.21;100.00
76108;BME280;64834;52.516;10.528;2024-01-06T00:53:09;99668.41;;;2.19;100.00
76108;BME280;64834;52.516;10.528;2024-01-06T00:55:34;99675.81;;;2.26;100.00
76108;BME280;64834;52.516;10.528;2024-01-06T00:58:00;99679.06;;;2.24;100.00
76108;BME280;64834;52.516;10.528;2024-01-06T01:00:25;99685.72;;;2.20;100.00
76108;BME280;64834;52.516;10.528;2024-01-06T01:02:52;99675.50;;;2.22;100.00
76108;BME280;64834;52.516;10.528;2024-01-06T01:05:17;99683.91;;;2.19;100.00
76108;BME280;64834;52.516;10.528;2024-01-06T01:07:42;99680.97;;;2.26;100.00
76108;BME280;64834;52.516;10.528;2024-01-06T01:10:08;99683.34;;;2.23;100.00
76108;BME280;64834;52.516;10.528;2024-01-06T01:12:35;99683.69;;;2.28;100.00
76108;BME280;64834;52.516;10.528;2024-01-06T01:15:00;99691.97;;;2.24;100.00
76108;BME280;64834;52.516;10.528;2024-01-06T01:17:25;99696.16;;;2.22;100.00
76108;BME280;64834;52.516;10.528;2024-01-06T01:19:50;99697.03;;;2.22;100.00
76108;BME280;64834;52.516;10.528;2024-01-06T01:22:16;99693.03;;;2.14;100.00
76108;BME280;64834;52.516;10.528;2024-01-06T01:24:42;99694.81;;;2.15;100.00
76108;BME280;64834;52.516;10.528;2024-01-06T01:27:07;99703.00;;;2.09;100.00
76108;BME280;64834;52.516;10.528;2024-01-06T01:29:32;99699.63;;;2.10;100.00
76108;BME280;64834;52.516;10.528;2024-01-06T01:31:58;99703.19;;;2.12;100.00
76108;BME280;64834;52.516;10.528;2024-01-06T01:34:23;99693.22;;;2.05;100.00
76108;BME280;64834;52.516;10.528;2024-01-06T01:36:48;99693.91;;;2.14;100.00
76108;BME280;64834;52.516;10.528;2024-01-06T01:39:14;99706.47;;;2.10;100.00
76108;BME280;64834;52.516;10.528;2024-01-06T01:41:40;99701.31;;;1.98;100.00
76108;BME280;64834;52.516;10.528;2024-01-06T01:44:05;99703.09;;;1.99;100.00
76108;BME280;64834;52.516;10.528;2024-01-06T01:46:30;99711.41;;;2.07;100.00
76108;BME280;64834;52.516;10.528;2024-01-06T01:49:00;99707.38;;;1.99;100.00
76108;BME280;64834;52.516;10.528;2024-01-06T01:51:28;99717.13;;;2.03;100.00
76108;BME280;64834;52.516;10.528;2024-01-06T01:53:54;99708.50;;;2.02;100.00
76108;BME280;64834;52.516;10.528;2024-01-06T01:56:20;99710.41;;;2.05;100.00
76108;BME280;64834;52.516;10.528;2024-01-06T01:58:47;99718.47;;;1.98;100.00
76108;BME280;64834;52.516;10.528;2024-01-06T02:01:13;99730.69;;;2.00;100.00
76108;BME280;64834;52.516;10.528;2024-01-06T02:03:41;99726.13;;;2.08;100.00
76108;BME280;64834;52.516;10.528;2024-01-06T02:06:06;99722.63;;;2.07;100.00
76108;BME280;64834;52.516;10.528;2024-01-06T02:08:31;99720.81;;;2.06;100.00
76108;BME280;64834;52.516;10.528;2024-01-06T02:10:57;99734.84;;;2.10;100.00
76108;BME280;64834;52.516;10.528;2024-01-06T02:13:23;99715.81;;;2.08;100.00
76108;BME280;64834;52.516;10.528;2024-01-06T02:15:48;99726.31;;;1.99;100.00
76108;BME280;64834;52.516;10.528;2024-01-06T02:18:14;99727.66;;;2.06;100.00
76108;BME280;64834;52.516;10.528;2024-01-06T02:20:44;99732.19;;;2.08;100.00
76108;BME280;64834;52.516;10.528;2024-01-06T02:23:11;99727.22;;;2.11;100.00
76108;BME280;64834;52.516;10.528;2024-01-06T02:25:36;99728.13;;;2.12;100.00
76108;BME280;64834;52.516;10.528;2024-01-06T02:28:02;99734.06;;;2.11;100.00
76108;BME280;64834;52.516;10.528;2024-01-06T02:30:27;99729.81;;;2.11;100.00
76108;BME280;64834;52.516;10.528;2024-01-06T02:32:52;99731.50;;;2.11;100.00
76108;BME280;64834;52.516;10.528;2024-01-06T02:35:18;99733.84;;;2.08;100.00
76108;BME280;64834;52.516;10.528;2024-01-06T02:37:43;99738.44;;;2.12;100.00
76108;BME280;64834;52.516;10.528;2024-01-06T02:40:09;99732.72;;;2.04;100.00
76108;BME280;64834;52.516;10.528;2024-01-06T02:42:34;99735.50;;;2.07;100.00
76108;BME280;64834;52.516;10.528;2024-01-06T02:45:00;99743.03;;;2.16;100.00
76108;BME280;64834;52.516;10.528;2024-01-06T02:47:25;99751.59;;;2.15;100.00
76108;BME280;64834;52.516;10.528;2024-01-06T02:49:50;99752.91;;;2.10;100.00
76108;BME280;64834;52.516;10.528;2024-01-06T02:52:16;99753.72;;;2.09;100.00
76108;BME280;64834;52.516;10.528;2024-01-06T02:54:41;99760.88;;;2.13;100.00
76108;BME280;64834;52.516;10.528;2024-01-06T02:57:06;99762.44;;;2.11;100.00
76108;BME280;64834;52.516;10.528;2024-01-06T02:59:32;99758.88;;;2.09;100.00
76108;BME280;64834;52.516;10.528;2024-01-06T03:01:59;99759.22;;;2.02;100.00
76108;BME280;64834;52.516;10.528;2024-01-06T03:04:24;99762.09;;;2.06;100.00
76108;BME280;64834;52.516;10.528;2024-01-06T03:06:49;99772.88;;;2.12;100.00
76108;BME280;64834;52.516;10.528;2024-01-06T03:09:18;99775.00;;;2.06;100.00
76108;BME280;64834;52.516;10.528;2024-01-06T03:11:44;99773.31;;;2.19;100.00
76108;BME280;64834;52.516;10.528;2024-01-06T03:14:10;99780.28;;;2.20;100.00
76108;BME280;64834;52.516;10.528;2024-01-06T03:16:35;99783.44;;;2.15;100.00
76108;BME280;64834;52.516;10.528;2024-01-06T03:19:00;99780.53;;;2.23;100.00
76108;BME280;64834;52.516;10.528;2024-01-06T03:21:26;99774.13;;;2.06;100.00
76108;BME280;64834;52.516;10.528;2024-01-06T03:23:51;99787.03;;;2.17;100.00
76108;BME280;64834;52.516;10.528;2024-01-06T03:26:17;99783.09;;;2.11;100.00
76108;BME280;64834;52.516;10.528;2024-01-06T03:28:42;99780.97;;;2.17;100.00
76108;BME280;64834;52.516;10.528;2024-01-06T03:31:08;99781.75;;;2.16;100.00
76108;BME280;64834;52.516;10.528;2024-01-06T03:33:33;99784.09;;;2.25;100.00
76108;BME280;64834;52.516;10.528;2024-01-06T03:36:04;99785.44;;;2.20;100.00
76108;BME280;64834;52.516;10.528;2024-01-06T03:38:29;99784.78;;;2.22;100.00
76108;BME280;64834;52.516;10.528;2024-01-06T03:40:54;99788.59;;;2.15;100.00
76108;BME280;64834;52.516;10.528;2024-01-06T03:43:20;99789.72;;;2.19;100.00
76108;BME280;64834;52.516;10.528;2024-01-06T03:45:45;99795.13;;;2.22;100.00
76108;BME280;64834;52.516;10.528;2024-01-06T03:48:10;99793.53;;;2.36;100.00
76108;BME280;64834;52.516;10.528;2024-01-06T03:50:35;99793.19;;;2.31;100.00
76108;BME280;64834;52.516;10.528;2024-01-06T03:53:01;99799.25;;;2.32;100.00
76108;BME280;64834;52.516;10.528;2024-01-06T03:55:26;99789.16;;;2.35;100.00
76108;BME280;64834;52.516;10.528;2024-01-06T03:57:51;99796.38;;;2.39;100.00
76108;BME280;64834;52.516;10.528;2024-01-06T04:00:17;99796.22;;;2.37;100.00
76108;BME280;64834;52.516;10.528;2024-01-06T04:02:42;99790.16;;;2.37;100.00
76108;BME280;64834;52.516;10.528;2024-01-06T04:05:08;99792.84;;;2.50;100.00
76108;BME280;64834;52.516;10.528;2024-01-06T04:07:33;99798.00;;;2.50;100.00
76108;BME280;64834;52.516;10.528;2024-01-06T04:09:58;99799.94;;;2.41;100.00
76108;BME280;64834;52.516;10.528;2024-01-06T04:12:23;99803.53;;;2.31;100.00
76108;BME280;64834;52.516;10.528;2024-01-06T04:14:49;99806.44;;;2.24;100.00
76108;BME280;64834;52.516;10.528;2024-01-06T04:17:14;99815.19;;;2.26;100.00
76108;BME280;64834;52.516;10.528;2024-01-06T04:19:39;99814.06;;;2.23;100.00
76108;BME280;64834;52.516;10.528;2024-01-06T04:22:05;99814.44;;;2.27;100.00
76108;BME280;64834;52.516;10.528;2024-01-06T04:24:30;99816.88;;;2.26;100.00
76108;BME280;64834;52.516;10.528;2024-01-06T04:26:56;99821.03;;;2.24;100.00
76108;BME280;64834;52.516;10.528;2024-01-06T04:29:21;99823.72;;;2.25;100.00
76108;BME280;64834;52.516;10.528;2024-01-06T04:31:46;99824.84;;;2.29;100.00
76108;BME280;64834;52.516;10.528;2024-01-06T04:34:11;99828.09;;;2.26;100.00
76108;BME280;64834;52.516;10.528;2024-01-06T04:36:37;99824.63;;;2.14;100.00
76108;BME280;64834;52.516;10.528;2024-01-06T04:39:02;99831.13;;;2.09;100.00
76108;BME280;64834;52.516;10.528;2024-01-06T04:41:27;99833.13;;;2.13;100.00
76108;BME280;64834;52.516;10.528;2024-01-06T04:43:53;99839.97;;;2.12;100.00
76108;BME280;64834;52.516;10.528;2024-01-06T04:46:18;99836.88;;;2.28;100.00
76108;BME280;64834;52.516;10.528;2024-01-06T04:48:44;99842.69;;;2.26;100.00
76108;BME280;64834;52.516;10.528;2024-01-06T04:51:09;99850.31;;;2.24;100.00
76108;BME280;64834;52.516;10.528;2024-01-06T04:53:36;99846.16;;;2.26;100.00
76108;BME280;64834;52.516;10.528;2024-01-06T04:56:01;99857.50;;;2.28;100.00
76108;BME280;64834;52.516;10.528;2024-01-06T04:58:26;99851.19;;;2.13;100.00
76108;BME280;64834;52.516;10.528;2024-01-06T05:00:52;99853.22;;;2.17;100.00
76108;BME280;64834;52.516;10.528;2024-01-06T05:03:18;99854.81;;;2.15;100.00
76108;BME280;64834;52.516;10.528;2024-01-06T05:05:43;99853.44;;;2.08;100.00
76108;BME280;64834;52.516;10.528;2024-01-06T05:08:08;99845.13;;;2.12;100.00
76108;BME280;64834;52.516;10.528;2024-01-06T05:10:34;99860.28;;;2.08;100.00
76108;BME280;64834;52.516;10.528;2024-01-06T05:12:59;99865.66;;;2.11;100.00
76108;BME280;64834;52.516;10.528;2024-01-06T05:15:25;99861.94;;;2.07;100.00
76108;BME280;64834;52.516;10.528;2024-01-06T05:17:50;99871.28;;;2.05;100.00
76108;BME280;64834;52.516;10.528;2024-01-06T05:20:15;99871.09;;;2.14;100.00
76108;BME280;64834;52.516;10.528;2024-01-06T05:22:41;99872.53;;;2.10;100.00
76108;BME280;64834;52.516;10.528;2024-01-06T05:25:06;99878.69;;;2.12;100.00
76108;BME280;64834;52.516;10.528;2024-01-06T05:27:31;99879.47;;;2.11;100.00
76108;BME280;64834;52.516;10.528;2024-01-06T05:29:57;99882.50;;;2.17;100.00
76108;BME280;64834;52.516;10.528;2024-01-06T05:32:22;99882.16;;;2.13;100.00
76108;BME280;64834;52.516;10.528;2024-01-06T05:34:48;99881.41;;;2.14;100.00
76108;BME280;64834;52.516;10.528;2024-01-06T05:37:13;99889.56;;;2.08;100.00
76108;BME280;64834;52.516;10.528;2024-01-06T05:39:39;99888.91;;;2.11;100.00
76108;BME280;64834;52.516;10.528;2024-01-06T05:42:05;99891.25;;;2.08;100.00
76108;BME280;64834;52.516;10.528;2024-01-06T05:44:30;99894.97;;;2.11;100.00
76108;BME280;64834;52.516;10.528;2024-01-06T05:46:56;99892.63;;;2.14;100.00
76108;BME280;64834;52.516;10.528;2024-01-06T05:49:21;99899.31;;;2.12;100.00
76108;BME280;64834;52.516;10.528;2024-01-06T05:51:47;99895.63;;;2.09;100.00
76108;BME280;64834;52.516;10.528;2024-01-06T05:54:12;99915.28;;;2.19;100.00
76108;BME280;64834;52.516;10.528;2024-01-06T05:56:38;99921.00;;;2.14;100.00
76108;BME280;64834;52.516;10.528;2024-01-06T05:59:03;99925.50;;;2.17;100.00
76108;BME280;64834;52.516;10.528;2024-01-06T06:01:28;99924.59;;;2.16;100.00
76108;BME280;64834;52.516;10.528;2024-01-06T06:03:54;99928.53;;;2.23;100.00
76108;BME280;64834;52.516;10.528;2024-01-06T06:06:19;99934.44;;;2.10;100.00
76108;BME280;64834;52.516;10.528;2024-01-06T06:08:45;99930.22;;;2.23;100.00
76108;BME280;64834;52.516;10.528;2024-01-06T06:11:11;99937.13;;;2.12;100.00
76108;BME280;64834;52.516;10.528;2024-01-06T06:13:38;99935.75;;;2.27;100.00
76108;BME280;64834;52.516;10.528;2024-01-06T06:16:04;99936.97;;;2.21;100.00
76108;BME280;64834;52.516;10.528;2024-01-06T06:18:29;99937.06;;;2.22;100.00
76108;BME280;64834;52.516;10.528;2024-01-06T06:20:54;99943.69;;;2.30;100.00
76108;BME280;64834;52.516;10.528;2024-01-06T06:23:20;99946.94;;;2.16;100.00
76108;BME280;64834;52.516;10.528;2024-01-06T06:25:45;99950.28;;;2.15;100.00
76108;BME280;64834;52.516;10.528;2024-01-06T06:28:11;99961.09;;;2.21;100.00
76108;BME280;64834;52.516;10.528;2024-01-06T06:30:36;99963.66;;;2.21;100.00
76108;BME280;64834;52.516;10.528;2024-01-06T06:33:01;99963.19;;;2.15;100.00
76108;BME280;64834;52.516;10.528;2024-01-06T06:35:27;99967.78;;;2.19;100.00
76108;BME280;64834;52.516;10.528;2024-01-06T06:37:52;99976.22;;;2.16;100.00
76108;BME280;64834;52.516;10.528;2024-01-06T06:40:17;99980.47;;;2.16;100.00
76108;BME280;64834;52.516;10.528;2024-01-06T06:42:43;99987.44;;;2.17;100.00
76108;BME280;64834;52.516;10.528;2024-01-06T06:45:08;99988.22;;;2.16;100.00
76108;BME280;64834;52.516;10.528;2024-01-06T06:47:36;99993.50;;;2.17;100.00
76108;BME280;64834;52.516;10.528;2024-01-06T06:50:02;100002.03;;;2.16;100.00
76108;BME280;64834;52.516;10.528;2024-01-06T06:52:27;100004.50;;;2.15;100.00
76108;BME280;64834;52.516;10.528;2024-01-06T06:54:52;100005.91;;;2.11;100.00
76108;BME280;64834;52.516;10.528;2024-01-06T06:57:18;100019.41;;;2.19;100.00
76108;BME280;64834;52.516;10.528;2024-01-06T06:59:43;100021.09;;;2.19;100.00
76108;BME280;64834;52.516;10.528;2024-01-06T07:02:09;100026.47;;;2.10;100.00
76108;BME280;64834;52.516;10.528;2024-01-06T07:04:35;100017.94;;;2.11;100.00
76108;BME280;64834;52.516;10.528;2024-01-06T07:07:00;100034.09;;;2.08;100.00
76108;BME280;64834;52.516;10.528;2024-01-06T07:09:25;100030.66;;;1.98;100.00
76108;BME280;64834;52.516;10.528;2024-01-06T07:11:51;100029.66;;;1.96;100.00
76108;BME280;64834;52.516;10.528;2024-01-06T07:14:16;100034.44;;;1.91;100.00
76108;BME280;64834;52.516;10.528;2024-01-06T07:16:42;100031.75;;;1.89;100.00
76108;BME280;64834;52.516;10.528;2024-01-06T07:19:07;100043.06;;;1.92;100.00
76108;BME280;64834;52.516;10.528;2024-01-06T07:21:33;100041.28;;;1.91;100.00
76108;BME280;64834;52.516;10.528;2024-01-06T07:23:58;100043.38;;;1.84;100.00
76108;BME280;64834;52.516;10.528;2024-01-06T07:26:24;100047.97;;;1.88;100.00
76108;BME280;64834;52.516;10.528;2024-01-06T07:28:49;100048.25;;;1.92;100.00
76108;BME280;64834;52.516;10.528;2024-01-06T07:31:14;100053.91;;;1.87;100.00
76108;BME280;64834;52.516;10.528;2024-01-06T07:33:40;100051.91;;;1.83;100.00
76108;BME280;64834;52.516;10.528;2024-01-06T07:36:05;100064.41;;;1.79;100.00
76108;BME280;64834;52.516;10.528;2024-01-06T07:38:31;100065.84;;;1.75;100.00
76108;BME280;64834;52.516;10.528;2024-01-06T07:40:56;100075.75;;;1.81;100.00
76108;BME280;64834;52.516;10.528;2024-01-06T07:43:22;100079.50;;;1.84;100.00
76108;BME280;64834;52.516;10.528;2024-01-06T07:45:47;100085.06;;;1.79;100.00
76108;BME280;64834;52.516;10.528;2024-01-06T07:48:13;100087.25;;;1.74;100.00
76108;BME280;64834;52.516;10.528;2024-01-06T07:50:39;100091.78;;;1.77;100.00
76108;BME280;64834;52.516;10.528;2024-01-06T07:53:04;100106.88;;;1.72;100.00
76108;BME280;64834;52.516;10.528;2024-01-06T07:55:29;100104.13;;;1.81;100.00
76108;BME280;64834;52.516;10.528;2024-01-06T07:57:55;100109.84;;;1.77;100.00
76108;BME280;64834;52.516;10.528;2024-01-06T08:00:20;100109.44;;;1.82;100.00
76108;BME280;64834;52.516;10.528;2024-01-06T08:02:45;100114.22;;;1.78;100.00
76108;BME280;64834;52.516;10.528;2024-01-06T08:05:11;100121.28;;;1.80;100.00
76108;BME280;64834;52.516;10.528;2024-01-06T08:07:36;100119.09;;;1.85;100.00
76108;BME280;64834;52.516;10.528;2024-01-06T08:10:02;100128.00;;;1.78;100.00
76108;BME280;64834;52.516;10.528;2024-01-06T08:12:30;100133.97;;;1.67;100.00
76108;BME280;64834;52.516;10.528;2024-01-06T08:14:56;100137.44;;;1.68;100.00
76108;BME280;64834;52.516;10.528;2024-01-06T08:17:21;100139.09;;;1.77;100.00
76108;BME280;64834;52.516;10.528;2024-01-06T08:19:46;100130.59;;;1.78;100.00
76108;BME280;64834;52.516;10.528;2024-01-06T08:22:12;100138.91;;;1.64;100.00
76108;BME280;64834;52.516;10.528;2024-01-06T08:24:38;100132.97;;;1.65;100.00
76108;BME280;64834;52.516;10.528;2024-01-06T08:27:03;100144.56;;;1.60;100.00
76108;BME280;64834;52.516;10.528;2024-01-06T08:29:29;100145.06;;;1.66;100.00
76108;BME280;64834;52.516;10.528;2024-01-06T08:31:54;100155.25;;;1.65;100.00
76108;BME280;64834;52.516;10.528;2024-01-06T08:34:20;100160.53;;;1.66;100.00
76108;BME280;64834;52.516;10.528;2024-01-06T08:36:45;100168.16;;;1.65;100.00
76108;BME280;64834;52.516;10.528;2024-01-06T08:39:11;100163.63;;;1.62;100.00
76108;BME280;64834;52.516;10.528;2024-01-06T08:41:36;100167.50;;;1.67;100.00
76108;BME280;64834;52.516;10.528;2024-01-06T08:44:02;100177.53;;;1.74;100.00
76108;BME280;64834;52.516;10.528;2024-01-06T08:46:27;100179.22;;;1.74;100.00
76108;BME280;64834;52.516;10.528;2024-01-06T08:48:52;100188.41;;;1.70;100.00
76108;BME280;64834;52.516;10.528;2024-01-06T08:51:18;100189.19;;;1.59;100.00
76108;BME280;64834;52.516;10.528;2024-01-06T08:53:45;100194.56;;;1.62;100.00
76108;BME280;64834;52.516;10.528;2024-01-06T08:56:11;100194.84;;;1.65;100.00
76108;BME280;64834;52.516;10.528;2024-01-06T08:58:36;100199.47;;;1.69;100.00
76108;BME280;64834;52.516;10.528;2024-01-06T09:01:01;100198.84;;;1.61;100.00
76108;BME280;64834;52.516;10.528;2024-01-06T09:03:27;100205.28;;;1.67;100.00
76108;BME280;64834;52.516;10.528;2024-01-06T09:05:53;100209.94;;;1.71;100.00
76108;BME280;64834;52.516;10.528;2024-01-06T09:08:19;100209.69;;;1.57;100.00
76108;BME280;64834;52.516;10.528;2024-01-06T09:10:44;100218.19;;;1.56;100.00
76108;BME280;64834;52.516;10.528;2024-01-06T09:13:09;100219.34;;;1.60;100.00
76108;BME280;64834;52.516;10.528;2024-01-06T09:15:35;100223.88;;;1.52;100.00
76108;BME280;64834;52.516;10.528;2024-01-06T09:18:00;100232.50;;;1.53;100.00
76108;BME280;64834;52.516;10.528;2024-01-06T09:20:26;100235.22;;;1.54;100.00
76108;BME280;64834;52.516;10.528;2024-01-06T09:22:52;100235.09;;;1.53;100.00
76108;BME280;64834;52.516;10.528;2024-01-06T09:25:17;100236.22;;;1.56;100.00
76108;BME280;64834;52.516;10.528;2024-01-06T09:27:43;100239.19;;;1.51;100.00
76108;BME280;64834;52.516;10.528;2024-01-06T09:30:08;100249.00;;;1.55;100.00
76108;BME280;64834;52.516;10.528;2024-01-06T09:32:34;100247.19;;;1.54;100.00
76108;BME280;64834;52.516;10.528;2024-01-06T09:34:59;100249.50;;;1.51;100.00
76108;BME280;64834;52.516;10.528;2024-01-06T09:37:24;100255.81;;;1.44;100.00
76108;BME280;64834;52.516;10.528;2024-01-06T09:39:50;100264.97;;;1.51;100.00
76108;BME280;64834;52.516;10.528;2024-01-06T09:42:16;100266.00;;;1.43;100.00
76108;BME280;64834;52.516;10.528;2024-01-06T09:44:41;100273.75;;;1.43;100.00
76108;BME280;64834;52.516;10.528;2024-01-06T09:47:10;100272.47;;;1.48;100.00
76108;BME280;64834;52.516;10.528;2024-01-06T09:49:38;100279.16;;;1.56;100.00
76108;BME280;64834;52.516;10.528;2024-01-06T09:52:08;100284.06;;;1.53;100.00
76108;BME280;64834;52.516;10.528;2024-01-06T09:54:39;100282.63;;;1.56;100.00
76108;BME280;64834;52.516;10.528;2024-01-06T09:57:07;100291.69;;;1.51;100.00
76108;BME280;64834;52.516;10.528;2024-01-06T09:59:33;100287.94;;;1.58;100.00
76108;BME280;64834;52.516;10.528;2024-01-06T10:02:00;100291.03;;;1.64;100.00
76108;BME280;64834;52.516;10.528;2024-01-06T10:04:26;100291.94;;;1.54;100.00
76108;BME280;64834;52.516;10.528;2024-01-06T10:06:51;100291.28;;;1.57;100.00
76108;BME280;64834;52.516;10.528;2024-01-06T10:09:16;100291.44;;;1.58;100.00
76108;BME280;64834;52.516;10.528;2024-01-06T10:11:41;100285.38;;;1.58;100.00
76108;BME280;64834;52.516;10.528;2024-01-06T10:14:08;100292.06;;;1.56;100.00
76108;BME280;64834;52.516;10.528;2024-01-06T10:16:34;100301.34;;;1.64;100.00
76108;BME280;64834;52.516;10.528;2024-01-06T10:19:00;100299.28;;;1.60;100.00
76108;BME280;64834;52.516;10.528;2024-01-06T10:21:26;100301.47;;;1.55;100.00
76108;BME280;64834;52.516;10.528;2024-01-06T10:23:54;100302.66;;;1.59;100.00
76108;BME280;64834;52.516;10.528;2024-01-06T10:26:19;100303.53;;;1.59;100.00
76108;BME280;64834;52.516;10.528;2024-01-06T10:28:44;100311.41;;;1.61;100.00
76108;BME280;64834;52.516;10.528;2024-01-06T10:31:10;100307.41;;;1.65;100.00
76108;BME280;64834;52.516;10.528;2024-01-06T10:33:35;100325.56;;;1.56;100.00
76108;BME280;64834;52.516;10.528;2024-01-06T10:36:00;100321.84;;;1.62;100.00
76108;BME280;64834;52.516;10.528;2024-01-06T10:38:26;100326.22;;;1.53;100.00
76108;BME280;64834;52.516;10.528;2024-01-06T10:41:05;100321.97;;;1.54;100.00
76108;BME280;64834;52.516;10.528;2024-01-06T10:43:34;100327.75;;;1.41;100.00
76108;BME280;64834;52.516;10.528;2024-01-06T10:46:02;100323.91;;;1.46;100.00
76108;BME280;64834;52.516;10.528;2024-01-06T10:48:31;100337.94;;;1.50;100.00
76108;BME280;64834;52.516;10.528;2024-01-06T10:50:58;100329.97;;;1.47;100.00
76108;BME280;64834;52.516;10.528;2024-01-06T10:53:26;100323.63;;;1.33;100.00
76108;BME280;64834;52.516;10.528;2024-01-06T10:55:52;100334.84;;;1.44;100.00
76108;BME280;64834;52.516;10.528;2024-01-06T10:58:18;100331.13;;;1.40;100.00
76108;BME280;64834;52.516;10.528;2024-01-06T11:00:44;100334.22;;;1.46;100.00
76108;BME280;64834;52.516;10.528;2024-01-06T11:03:09;100339.91;;;1.52;100.00
76108;BME280;64834;52.516;10.528;2024-01-06T11:05:35;100335.75;;;1.34;100.00
76108;BME280;64834;52.516;10.528;2024-01-06T11:08:01;100331.50;;;1.34;100.00
76108;BME280;64834;52.516;10.528;2024-01-06T11:10:27;100340.13;;;1.35;100.00
76108;BME280;64834;52.516;10.528;2024-01-06T11:13:15;100335.91;;;1.46;100.00
76108;BME280;64834;52.516;10.528;2024-01-06T11:15:47;100337.16;;;1.51;100.00
76108;BME280;64834;52.516;10.528;2024-01-06T11:18:35;100334.97;;;1.35;100.00
76108;BME280;64834;52.516;10.528;2024-01-06T11:23:37;100335.88;;;1.35;100.00
76108;BME280;64834;52.516;10.528;2024-01-06T11:26:03;100347.22;;;1.38;100.00
76108;BME280;64834;52.516;10.528;2024-01-06T11:28:28;100335.84;;;1.25;100.00
76108;BME280;64834;52.516;10.528;2024-01-06T11:31:09;100337.66;;;1.37;100.00
76108;BME280;64834;52.516;10.528;2024-01-06T11:33:41;100337.28;;;1.32;100.00
76108;BME280;64834;52.516;10.528;2024-01-06T11:36:09;100340.50;;;1.29;100.00
76108;BME280;64834;52.516;10.528;2024-01-06T11:38:39;100341.16;;;1.27;100.00
76108;BME280;64834;52.516;10.528;2024-01-06T11:41:08;100331.47;;;1.24;100.00
76108;BME280;64834;52.516;10.528;2024-01-06T11:43:34;100336.25;;;1.30;100.00
76108;BME280;64834;52.516;10.528;2024-01-06T11:46:01;100346.34;;;1.47;100.00
76108;BME280;64834;52.516;10.528;2024-01-06T11:48:29;100340.00;;;1.44;100.00
76108;BME280;64834;52.516;10.528;2024-01-06T11:50:55;100338.44;;;1.35;100.00
76108;BME280;64834;52.516;10.528;2024-01-06T11:53:21;100340.25;;;1.37;100.00
76108;BME280;64834;52.516;10.528;2024-01-06T11:55:48;100336.91;;;1.38;100.00
76108;BME280;64834;52.516;10.528;2024-01-06T11:58:16;100343.97;;;1.30;100.00
76108;BME280;64834;52.516;10.528;2024-01-06T12:00:41;100340.66;;;1.41;100.00
76108;BME280;64834;52.516;10.528;2024-01-06T12:03:07;100345.81;;;1.41;100.00
76108;BME280;64834;52.516;10.528;2024-01-06T12:05:32;100337.56;;;1.45;100.00
76108;BME280;64834;52.516;10.528;2024-01-06T12:08:02;100341.03;;;1.35;100.00
76108;BME280;64834;52.516;10.528;2024-01-06T12:10:31;100350.56;;;1.37;100.00
76108;BME280;64834;52.516;10.528;2024-01-06T12:12:59;100346.06;;;1.34;100.00
76108;BME280;64834;52.516;10.528;2024-01-06T12:15:26;100346.44;;;1.28;100.00
76108;BME280;64834;52.516;10.528;2024-01-06T12:17:51;100343.19;;;1.31;100.00
76108;BME280;64834;52.516;10.528;2024-01-06T12:20:17;100337.41;;;1.23;100.00
76108;BME280;64834;52.516;10.528;2024-01-06T12:22:42;100348.59;;;1.24;100.00
76108;BME280;64834;52.516;10.528;2024-01-06T12:25:09;100355.72;;;1.26;100.00
76108;BME280;64834;52.516;10.528;2024-01-06T12:27:34;100359.19;;;1.27;100.00
76108;BME280;64834;52.516;10.528;2024-01-06T12:29:59;100353.63;;;1.22;100.00
76108;BME280;64834;52.516;10.528;2024-01-06T12:32:25;100357.63;;;1.29;100.00
76108;BME280;64834;52.516;10.528;2024-01-06T12:34:51;100365.13;;;1.26;100.00
76108;BME280;64834;52.516;10.528;2024-01-06T12:37:16;100365.50;;;1.20;100.00
76108;BME280;64834;52.516;10.528;2024-01-06T12:39:42;100373.22;;;1.20;100.00
76108;BME280;64834;52.516;10.528;2024-01-06T12:42:08;100370.34;;;1.07;100.00